sensor_id;sensor_type;location;lat;lon;timestamp;P1;durP1;ratioP1;P2;durP2;ratioP2
27491;SDS011;14927;51.210;6.838;2022-12-07T00:02:35;19.90;;;12.90;;
27491;SDS011;14927;51.210;6.838;2022-12-07T00:05:20;19.50;;;12.70;;
27491;SDS011;14927;51.210;6.838;2022-12-07T00:08:04;17.73;;;12.02;;
27491;SDS011;14927;51.210;6.838;2022-12-07T00:10:49;17.23;;;12.20;;
27491;SDS011;14927;51.210;6.838;2022-12-07T00:13:34;17.65;;;12.63;;
27491;SDS011;14927;51.210;6.838;2022-12-07T00:16:20;17.30;;;12.95;;
27491;SDS011;14927;51.210;6.838;2022-12-07T00:19:09;18.67;;;12.85;;
27491;SDS011;14927;51.210;6.838;2022-12-07T00:21:55;18.73;;;12.85;;
27491;SDS011;14927;51.210;6.838;2022-12-07T00:24:43;20.80;;;12.73;;
27491;SDS011;14927;51.210;6.838;2022-12-07T00:27:27;16.58;;;12.60;;
27491;SDS011;14927;51.210;6.838;2022-12-07T00:30:12;18.23;;;12.90;;
27491;SDS011;14927;51.210;6.838;2022-12-07T00:33:00;20.90;;;13.10;;
27491;SDS011;14927;51.210;6.838;2022-12-07T00:35:44;20.08;;;14.05;;
27491;SDS011;14927;51.210;6.838;2022-12-07T00:38:30;20.50;;;13.77;;
27491;SDS011;14927;51.210;6.838;2022-12-07T00:41:17;19.90;;;13.73;;
27491;SDS011;14927;51.210;6.838;2022-12-07T00:44:04;22.55;;;13.50;;
27491;SDS011;14927;51.210;6.838;2022-12-07T00:46:49;20.23;;;13.57;;
27491;SDS011;14927;51.210;6.838;2022-12-07T00:49:34;20.08;;;13.27;;
27491;SDS011;14927;51.210;6.838;2022-12-07T00:52:18;17.60;;;12.93;;
27491;SDS011;14927;51.210;6.838;2022-12-07T00:55:03;20.23;;;13.68;;
27491;SDS011;14927;51.210;6.838;2022-12-07T00:57:48;18.70;;;12.65;;
27491;SDS011;14927;51.210;6.838;2022-12-07T01:00:33;19.55;;;12.18;;
27491;SDS011;14927;51.210;6.838;2022-12-07T01:03:21;18.67;;;12.23;;
27491;SDS011;14927;51.210;6.838;2022-12-07T01:06:05;22.60;;;13.90;;
27491;SDS011;14927;51.210;6.838;2022-12-07T01:08:50;18.83;;;12.90;;
27491;SDS011;14927;51.210;6.838;2022-12-07T01:11:36;19.23;;;12.93;;
27491;SDS011;14927;51.210;6.838;2022-12-07T01:14:21;17.77;;;13.63;;
27491;SDS011;14927;51.210;6.838;2022-12-07T01:17:05;19.45;;;12.75;;
27491;SDS011;14927;51.210;6.838;2022-12-07T01:19:50;20.70;;;13.85;;
27491;SDS011;14927;51.210;6.838;2022-12-07T01:22:39;19.52;;;12.77;;
27491;SDS011;14927;51.210;6.838;2022-12-07T01:25:25;23.48;;;13.10;;
27491;SDS011;14927;51.210;6.838;2022-12-07T01:28:09;18.35;;;13.32;;
27491;SDS011;14927;51.210;6.838;2022-12-07T01:30:55;21.63;;;12.80;;
27491;SDS011;14927;51.210;6.838;2022-12-07T01:33:55;17.45;;;12.38;;
27491;SDS011;14927;51.210;6.838;2022-12-07T01:36:41;16.98;;;11.90;;
27491;SDS011;14927;51.210;6.838;2022-12-07T01:39:26;19.38;;;12.70;;
27491;SDS011;14927;51.210;6.838;2022-12-07T01:42:11;18.67;;;12.95;;
27491;SDS011;14927;51.210;6.838;2022-12-07T01:48:02;17.92;;;11.82;;
27491;SDS011;14927;51.210;6.838;2022-12-07T01:50:48;18.08;;;12.18;;
27491;SDS011;14927;51.210;6.838;2022-12-07T01:53:35;19.70;;;12.90;;
27491;SDS011;14927;51.210;6.838;2022-12-07T01:56:27;24.20;;;12.98;;
27491;SDS011;14927;51.210;6.838;2022-12-07T01:59:13;20.58;;;12.55;;
27491;SDS011;14927;51.210;6.838;2022-12-07T02:01:58;19.00;;;12.90;;
27491;SDS011;14927;51.210;6.838;2022-12-07T02:04:46;20.17;;;13.25;;
27491;SDS011;14927;51.210;6.838;2022-12-07T02:07:30;20.83;;;13.35;;
27491;SDS011;14927;51.210;6.838;2022-12-07T02:13:13;20.20;;;12.52;;
27491;SDS011;14927;51.210;6.838;2022-12-07T02:16:40;20.80;;;12.32;;
27491;SDS011;14927;51.210;6.838;2022-12-07T02:29:31;16.23;;;11.98;;
27491;SDS011;14927;51.210;6.838;2022-12-07T02:33:30;19.75;;;11.95;;
27491;SDS011;14927;51.210;6.838;2022-12-07T02:36:36;16.58;;;11.50;;
27491;SDS011;14927;51.210;6.838;2022-12-07T02:39:44;14.68;;;11.73;;
27491;SDS011;14927;51.210;6.838;2022-12-07T02:42:38;17.83;;;11.98;;
27491;SDS011;14927;51.210;6.838;2022-12-07T02:45:29;17.67;;;11.82;;
27491;SDS011;14927;51.210;6.838;2022-12-07T02:48:16;16.17;;;12.38;;
27491;SDS011;14927;51.210;6.838;2022-12-07T02:51:02;20.33;;;13.02;;
27491;SDS011;14927;51.210;6.838;2022-12-07T02:53:47;20.83;;;11.98;;
27491;SDS011;14927;51.210;6.838;2022-12-07T03:00:02;15.30;;;11.85;;
27491;SDS011;14927;51.210;6.838;2022-12-07T03:06:06;14.82;;;10.70;;
27491;SDS011;14927;51.210;6.838;2022-12-07T03:09:13;15.02;;;10.95;;
27491;SDS011;14927;51.210;6.838;2022-12-07T03:12:22;16.98;;;11.18;;
27491;SDS011;14927;51.210;6.838;2022-12-07T03:15:27;15.43;;;10.75;;
27491;SDS011;14927;51.210;6.838;2022-12-07T03:18:57;15.88;;;11.20;;
27491;SDS011;14927;51.210;6.838;2022-12-07T03:21:49;16.35;;;11.07;;
27491;SDS011;14927;51.210;6.838;2022-12-07T03:24:51;16.40;;;11.38;;
27491;SDS011;14927;51.210;6.838;2022-12-07T03:27:42;14.70;;;11.13;;
27491;SDS011;14927;51.210;6.838;2022-12-07T03:30:46;16.77;;;11.10;;
27491;SDS011;14927;51.210;6.838;2022-12-07T03:33:44;14.13;;;11.05;;
27491;SDS011;14927;51.210;6.838;2022-12-07T03:37:00;16.35;;;10.80;;
27491;SDS011;14927;51.210;6.838;2022-12-07T03:40:14;15.45;;;10.77;;
27491;SDS011;14927;51.210;6.838;2022-12-07T03:43:07;15.20;;;10.60;;
27491;SDS011;14927;51.210;6.838;2022-12-07T03:49:42;17.65;;;10.90;;
27491;SDS011;14927;51.210;6.838;2022-12-07T03:52:39;15.20;;;10.27;;
27491;SDS011;14927;51.210;6.838;2022-12-07T03:55:33;13.45;;;10.27;;
27491;SDS011;14927;51.210;6.838;2022-12-07T03:58:23;14.02;;;10.35;;
27491;SDS011;14927;51.210;6.838;2022-12-07T04:01:08;15.52;;;11.18;;
27491;SDS011;14927;51.210;6.838;2022-12-07T04:03:54;12.75;;;10.27;;
27491;SDS011;14927;51.210;6.838;2022-12-07T04:06:38;14.70;;;10.98;;
27491;SDS011;14927;51.210;6.838;2022-12-07T04:09:23;15.05;;;10.80;;
27491;SDS011;14927;51.210;6.838;2022-12-07T04:12:11;17.50;;;11.40;;
27491;SDS011;14927;51.210;6.838;2022-12-07T04:14:55;15.40;;;10.13;;
27491;SDS011;14927;51.210;6.838;2022-12-07T04:17:43;14.57;;;9.93;;
27491;SDS011;14927;51.210;6.838;2022-12-07T04:20:27;13.18;;;10.65;;
27491;SDS011;14927;51.210;6.838;2022-12-07T04:23:12;15.35;;;10.98;;
27491;SDS011;14927;51.210;6.838;2022-12-07T04:25:57;17.50;;;10.90;;
27491;SDS011;14927;51.210;6.838;2022-12-07T04:28:41;16.77;;;10.27;;
27491;SDS011;14927;51.210;6.838;2022-12-07T04:31:26;13.82;;;9.85;;
27491;SDS011;14927;51.210;6.838;2022-12-07T04:34:11;13.90;;;10.02;;
27491;SDS011;14927;51.210;6.838;2022-12-07T04:36:56;15.52;;;9.75;;
27491;SDS011;14927;51.210;6.838;2022-12-07T04:39:41;14.48;;;9.73;;
27491;SDS011;14927;51.210;6.838;2022-12-07T04:42:27;15.35;;;9.68;;
27491;SDS011;14927;51.210;6.838;2022-12-07T04:45:12;16.38;;;9.48;;
27491;SDS011;14927;51.210;6.838;2022-12-07T04:47:56;15.45;;;9.32;;
27491;SDS011;14927;51.210;6.838;2022-12-07T04:50:41;12.95;;;9.00;;
27491;SDS011;14927;51.210;6.838;2022-12-07T04:53:25;10.10;;;8.43;;
27491;SDS011;14927;51.210;6.838;2022-12-07T04:56:10;12.70;;;8.73;;
27491;SDS011;14927;51.210;6.838;2022-12-07T04:58:55;12.88;;;8.70;;
27491;SDS011;14927;51.210;6.838;2022-12-07T05:01:39;14.20;;;8.77;;
27491;SDS011;14927;51.210;6.838;2022-12-07T05:04:24;11.88;;;8.75;;
27491;SDS011;14927;51.210;6.838;2022-12-07T05:07:11;16.98;;;8.63;;
27491;SDS011;14927;51.210;6.838;2022-12-07T05:09:55;13.70;;;8.57;;
27491;SDS011;14927;51.210;6.838;2022-12-07T05:12:40;15.70;;;7.90;;
27491;SDS011;14927;51.210;6.838;2022-12-07T05:15:25;13.73;;;7.82;;
27491;SDS011;14927;51.210;6.838;2022-12-07T05:18:10;14.85;;;8.10;;
27491;SDS011;14927;51.210;6.838;2022-12-07T05:20:56;9.52;;;7.03;;
27491;SDS011;14927;51.210;6.838;2022-12-07T05:23:41;11.85;;;7.25;;
27491;SDS011;14927;51.210;6.838;2022-12-07T05:26:26;13.85;;;7.65;;
27491;SDS011;14927;51.210;6.838;2022-12-07T05:29:12;17.17;;;7.55;;
27491;SDS011;14927;51.210;6.838;2022-12-07T05:31:59;11.98;;;7.55;;
27491;SDS011;14927;51.210;6.838;2022-12-07T05:34:43;11.18;;;6.78;;
27491;SDS011;14927;51.210;6.838;2022-12-07T05:37:28;12.38;;;6.97;;
27491;SDS011;14927;51.210;6.838;2022-12-07T05:40:13;13.10;;;6.78;;
27491;SDS011;14927;51.210;6.838;2022-12-07T05:42:58;12.50;;;6.85;;
27491;SDS011;14927;51.210;6.838;2022-12-07T05:45:43;14.48;;;7.25;;
27491;SDS011;14927;51.210;6.838;2022-12-07T05:48:27;14.07;;;6.80;;
27491;SDS011;14927;51.210;6.838;2022-12-07T05:51:12;7.15;;;5.85;;
27491;SDS011;14927;51.210;6.838;2022-12-07T05:53:56;11.13;;;6.15;;
27491;SDS011;14927;51.210;6.838;2022-12-07T05:56:41;14.05;;;7.38;;
27491;SDS011;14927;51.210;6.838;2022-12-07T05:59:25;12.02;;;5.80;;
27491;SDS011;14927;51.210;6.838;2022-12-07T06:02:12;10.80;;;6.43;;
27491;SDS011;14927;51.210;6.838;2022-12-07T06:04:58;10.95;;;6.25;;
27491;SDS011;14927;51.210;6.838;2022-12-07T06:07:43;9.85;;;5.90;;
27491;SDS011;14927;51.210;6.838;2022-12-07T06:10:28;9.30;;;5.93;;
27491;SDS011;14927;51.210;6.838;2022-12-07T06:13:12;11.10;;;6.10;;
27491;SDS011;14927;51.210;6.838;2022-12-07T06:15:57;9.77;;;5.85;;
27491;SDS011;14927;51.210;6.838;2022-12-07T06:18:41;13.05;;;6.22;;
27491;SDS011;14927;51.210;6.838;2022-12-07T06:21:26;10.65;;;5.93;;
27491;SDS011;14927;51.210;6.838;2022-12-07T06:24:11;14.73;;;6.68;;
27491;SDS011;14927;51.210;6.838;2022-12-07T06:26:57;9.50;;;5.82;;
27491;SDS011;14927;51.210;6.838;2022-12-07T06:29:42;11.63;;;5.68;;
27491;SDS011;14927;51.210;6.838;2022-12-07T06:32:26;12.70;;;6.53;;
27491;SDS011;14927;51.210;6.838;2022-12-07T06:35:11;11.00;;;6.45;;
27491;SDS011;14927;51.210;6.838;2022-12-07T06:37:56;9.68;;;5.68;;
27491;SDS011;14927;51.210;6.838;2022-12-07T06:40:40;10.73;;;5.22;;
27491;SDS011;14927;51.210;6.838;2022-12-07T06:43:25;8.88;;;5.20;;
27491;SDS011;14927;51.210;6.838;2022-12-07T06:46:11;12.38;;;6.15;;
27491;SDS011;14927;51.210;6.838;2022-12-07T06:48:56;12.60;;;6.20;;
27491;SDS011;14927;51.210;6.838;2022-12-07T06:51:41;10.23;;;5.38;;
27491;SDS011;14927;51.210;6.838;2022-12-07T06:54:26;14.60;;;5.53;;
27491;SDS011;14927;51.210;6.838;2022-12-07T06:57:11;11.15;;;4.97;;
27491;SDS011;14927;51.210;6.838;2022-12-07T06:59:55;16.27;;;5.15;;
27491;SDS011;14927;51.210;6.838;2022-12-07T07:02:40;10.68;;;5.18;;
27491;SDS011;14927;51.210;6.838;2022-12-07T07:05:25;14.35;;;6.05;;
27491;SDS011;14927;51.210;6.838;2022-12-07T07:08:09;16.23;;;6.38;;
27491;SDS011;14927;51.210;6.838;2022-12-07T07:10:55;14.52;;;6.25;;
27491;SDS011;14927;51.210;6.838;2022-12-07T07:13:39;12.02;;;6.13;;
27491;SDS011;14927;51.210;6.838;2022-12-07T07:16:24;16.23;;;6.35;;
27491;SDS011;14927;51.210;6.838;2022-12-07T07:19:09;11.85;;;5.97;;
27491;SDS011;14927;51.210;6.838;2022-12-07T07:21:53;11.77;;;5.50;;
27491;SDS011;14927;51.210;6.838;2022-12-07T07:24:38;9.15;;;5.70;;
27491;SDS011;14927;51.210;6.838;2022-12-07T07:27:22;9.88;;;6.63;;
27491;SDS011;14927;51.210;6.838;2022-12-07T07:30:07;9.18;;;6.10;;
27491;SDS011;14927;51.210;6.838;2022-12-07T07:32:56;11.88;;;6.55;;
27491;SDS011;14927;51.210;6.838;2022-12-07T07:35:42;11.83;;;6.37;;
27491;SDS011;14927;51.210;6.838;2022-12-07T07:38:26;11.60;;;6.13;;
27491;SDS011;14927;51.210;6.838;2022-12-07T07:41:11;17.20;;;6.47;;
27491;SDS011;14927;51.210;6.838;2022-12-07T07:43:56;12.52;;;6.47;;
27491;SDS011;14927;51.210;6.838;2022-12-07T07:46:40;13.00;;;7.88;;
27491;SDS011;14927;51.210;6.838;2022-12-07T07:49:25;12.13;;;6.30;;
27491;SDS011;14927;51.210;6.838;2022-12-07T07:52:10;10.93;;;6.00;;
27491;SDS011;14927;51.210;6.838;2022-12-07T07:54:54;17.05;;;6.65;;
27491;SDS011;14927;51.210;6.838;2022-12-07T07:57:39;11.10;;;6.72;;
27491;SDS011;14927;51.210;6.838;2022-12-07T08:00:24;15.02;;;7.05;;
27491;SDS011;14927;51.210;6.838;2022-12-07T08:03:09;15.82;;;6.78;;
27491;SDS011;14927;51.210;6.838;2022-12-07T08:05:53;14.35;;;6.25;;
27491;SDS011;14927;51.210;6.838;2022-12-07T08:08:38;11.25;;;6.95;;
27491;SDS011;14927;51.210;6.838;2022-12-07T08:11:22;19.08;;;8.27;;
27491;SDS011;14927;51.210;6.838;2022-12-07T08:14:08;20.17;;;8.13;;
27491;SDS011;14927;51.210;6.838;2022-12-07T08:16:54;12.73;;;7.18;;
27491;SDS011;14927;51.210;6.838;2022-12-07T08:19:39;12.57;;;5.95;;
27491;SDS011;14927;51.210;6.838;2022-12-07T08:22:24;12.20;;;6.68;;
27491;SDS011;14927;51.210;6.838;2022-12-07T08:25:08;11.27;;;6.47;;
27491;SDS011;14927;51.210;6.838;2022-12-07T08:27:53;14.25;;;6.75;;
27491;SDS011;14927;51.210;6.838;2022-12-07T08:30:39;15.45;;;5.80;;
27491;SDS011;14927;51.210;6.838;2022-12-07T08:33:25;11.93;;;5.05;;
27491;SDS011;14927;51.210;6.838;2022-12-07T08:36:11;12.80;;;5.90;;
27491;SDS011;14927;51.210;6.838;2022-12-07T08:38:56;10.38;;;5.75;;
27491;SDS011;14927;51.210;6.838;2022-12-07T08:41:41;14.48;;;5.22;;
27491;SDS011;14927;51.210;6.838;2022-12-07T08:44:26;12.27;;;5.38;;
27491;SDS011;14927;51.210;6.838;2022-12-07T08:47:11;12.93;;;6.68;;
27491;SDS011;14927;51.210;6.838;2022-12-07T08:49:56;11.27;;;6.15;;
27491;SDS011;14927;51.210;6.838;2022-12-07T08:52:50;17.08;;;5.35;;
27491;SDS011;14927;51.210;6.838;2022-12-07T08:55:39;12.18;;;4.93;;
27491;SDS011;14927;51.210;6.838;2022-12-07T08:58:24;13.65;;;5.57;;
27491;SDS011;14927;51.210;6.838;2022-12-07T09:01:08;12.68;;;5.03;;
27491;SDS011;14927;51.210;6.838;2022-12-07T09:03:53;9.75;;;4.70;;
27491;SDS011;14927;51.210;6.838;2022-12-07T09:06:38;11.98;;;5.53;;
27491;SDS011;14927;51.210;6.838;2022-12-07T09:09:22;11.88;;;4.70;;
27491;SDS011;14927;51.210;6.838;2022-12-07T09:12:07;14.25;;;5.55;;
27491;SDS011;14927;51.210;6.838;2022-12-07T09:14:52;13.98;;;5.45;;
27491;SDS011;14927;51.210;6.838;2022-12-07T09:17:37;11.75;;;5.72;;
27491;SDS011;14927;51.210;6.838;2022-12-07T09:20:21;12.07;;;5.10;;
27491;SDS011;14927;51.210;6.838;2022-12-07T09:23:06;11.80;;;5.45;;
27491;SDS011;14927;51.210;6.838;2022-12-07T09:25:52;15.50;;;5.30;;
27491;SDS011;14927;51.210;6.838;2022-12-07T09:28:37;10.85;;;5.53;;
27491;SDS011;14927;51.210;6.838;2022-12-07T09:31:21;19.45;;;6.03;;
27491;SDS011;14927;51.210;6.838;2022-12-07T09:34:06;12.95;;;4.78;;
27491;SDS011;14927;51.210;6.838;2022-12-07T09:36:50;17.42;;;5.05;;
27491;SDS011;14927;51.210;6.838;2022-12-07T09:39:39;17.80;;;5.10;;
27491;SDS011;14927;51.210;6.838;2022-12-07T09:42:28;14.30;;;5.53;;
27491;SDS011;14927;51.210;6.838;2022-12-07T09:45:24;12.82;;;5.90;;
27491;SDS011;14927;51.210;6.838;2022-12-07T09:48:17;9.65;;;5.15;;
27491;SDS011;14927;51.210;6.838;2022-12-07T09:51:24;17.15;;;5.80;;
27491;SDS011;14927;51.210;6.838;2022-12-07T09:54:15;13.40;;;5.30;;
27491;SDS011;14927;51.210;6.838;2022-12-07T09:57:01;14.35;;;4.97;;
27491;SDS011;14927;51.210;6.838;2022-12-07T09:59:48;13.70;;;5.57;;
27491;SDS011;14927;51.210;6.838;2022-12-07T10:02:37;14.80;;;5.82;;
27491;SDS011;14927;51.210;6.838;2022-12-07T10:05:34;11.40;;;5.15;;
27491;SDS011;14927;51.210;6.838;2022-12-07T10:08:24;12.23;;;5.38;;
27491;SDS011;14927;51.210;6.838;2022-12-07T10:11:09;12.63;;;4.80;;
27491;SDS011;14927;51.210;6.838;2022-12-07T10:13:54;13.32;;;5.10;;
27491;SDS011;14927;51.210;6.838;2022-12-07T10:16:55;12.73;;;5.05;;
27491;SDS011;14927;51.210;6.838;2022-12-07T10:19:40;13.10;;;4.95;;
27491;SDS011;14927;51.210;6.838;2022-12-07T10:22:25;9.85;;;5.32;;
27491;SDS011;14927;51.210;6.838;2022-12-07T10:25:18;15.45;;;5.20;;
27491;SDS011;14927;51.210;6.838;2022-12-07T10:28:10;9.60;;;4.82;;
27491;SDS011;14927;51.210;6.838;2022-12-07T10:36:37;11.85;;;4.95;;
27491;SDS011;14927;51.210;6.838;2022-12-07T10:39:22;12.73;;;5.25;;
27491;SDS011;14927;51.210;6.838;2022-12-07T10:42:09;14.57;;;4.97;;
27491;SDS011;14927;51.210;6.838;2022-12-07T10:45:22;12.80;;;5.70;;
27491;SDS011;14927;51.210;6.838;2022-12-07T10:48:12;14.15;;;5.40;;
27491;SDS011;14927;51.210;6.838;2022-12-07T10:51:24;18.40;;;5.10;;
27491;SDS011;14927;51.210;6.838;2022-12-07T11:09:54;7.85;;;3.60;;
27491;SDS011;14927;51.210;6.838;2022-12-07T11:16:12;10.35;;;3.20;;
27491;SDS011;14927;51.210;6.838;2022-12-07T11:19:11;9.73;;;3.08;;
27491;SDS011;14927;51.210;6.838;2022-12-07T11:22:10;14.48;;;3.60;;
27491;SDS011;14927;51.210;6.838;2022-12-07T11:28:35;11.60;;;3.10;;
27491;SDS011;14927;51.210;6.838;2022-12-07T11:31:46;8.80;;;3.03;;
27491;SDS011;14927;51.210;6.838;2022-12-07T11:37:55;13.77;;;3.30;;
27491;SDS011;14927;51.210;6.838;2022-12-07T11:40:53;13.35;;;3.90;;
27491;SDS011;14927;51.210;6.838;2022-12-07T11:43:58;10.73;;;3.30;;
27491;SDS011;14927;51.210;6.838;2022-12-07T11:46:58;10.80;;;3.25;;
27491;SDS011;14927;51.210;6.838;2022-12-07T11:50:23;6.47;;;2.60;;
27491;SDS011;14927;51.210;6.838;2022-12-07T11:56:17;8.10;;;2.90;;
27491;SDS011;14927;51.210;6.838;2022-12-07T11:59:13;12.15;;;3.88;;
27491;SDS011;14927;51.210;6.838;2022-12-07T12:02:16;8.02;;;3.28;;
27491;SDS011;14927;51.210;6.838;2022-12-07T12:05:18;10.48;;;3.00;;
27491;SDS011;14927;51.210;6.838;2022-12-07T12:14:37;8.50;;;2.90;;
27491;SDS011;14927;51.210;6.838;2022-12-07T12:17:50;13.77;;;3.17;;
27491;SDS011;14927;51.210;6.838;2022-12-07T12:26:29;13.73;;;4.13;;
27491;SDS011;14927;51.210;6.838;2022-12-07T12:29:35;7.60;;;3.13;;
27491;SDS011;14927;51.210;6.838;2022-12-07T12:32:24;13.32;;;3.25;;
27491;SDS011;14927;51.210;6.838;2022-12-07T12:38:29;11.38;;;3.40;;
27491;SDS011;14927;51.210;6.838;2022-12-07T12:45:02;9.07;;;3.55;;
27491;SDS011;14927;51.210;6.838;2022-12-07T12:48:29;15.55;;;3.75;;
27491;SDS011;14927;51.210;6.838;2022-12-07T12:51:39;10.50;;;4.13;;
27491;SDS011;14927;51.210;6.838;2022-12-07T12:54:29;7.50;;;3.45;;
27491;SDS011;14927;51.210;6.838;2022-12-07T13:00:15;11.00;;;3.67;;
27491;SDS011;14927;51.210;6.838;2022-12-07T13:03:02;10.25;;;3.65;;
27491;SDS011;14927;51.210;6.838;2022-12-07T13:05:47;8.35;;;3.58;;
27491;SDS011;14927;51.210;6.838;2022-12-07T13:08:32;6.82;;;2.85;;
27491;SDS011;14927;51.210;6.838;2022-12-07T13:11:25;11.23;;;3.80;;
27491;SDS011;14927;51.210;6.838;2022-12-07T13:20:39;9.07;;;3.65;;
27491;SDS011;14927;51.210;6.838;2022-12-07T13:29:24;10.00;;;3.42;;
27491;SDS011;14927;51.210;6.838;2022-12-07T13:32:16;11.15;;;3.65;;
27491;SDS011;14927;51.210;6.838;2022-12-07T13:38:32;13.40;;;3.10;;
27491;SDS011;14927;51.210;6.838;2022-12-07T13:41:22;7.93;;;2.45;;
27491;SDS011;14927;51.210;6.838;2022-12-07T13:44:14;8.85;;;3.33;;
27491;SDS011;14927;51.210;6.838;2022-12-07T13:49:50;11.27;;;3.00;;
27491;SDS011;14927;51.210;6.838;2022-12-07T13:52:43;6.90;;;2.53;;
27491;SDS011;14927;51.210;6.838;2022-12-07T13:55:28;9.25;;;2.78;;
27491;SDS011;14927;51.210;6.838;2022-12-07T13:58:13;11.52;;;2.42;;
27491;SDS011;14927;51.210;6.838;2022-12-07T14:00:58;10.38;;;2.47;;
27491;SDS011;14927;51.210;6.838;2022-12-07T14:03:43;7.13;;;2.30;;
27491;SDS011;14927;51.210;6.838;2022-12-07T14:06:28;9.00;;;2.35;;
27491;SDS011;14927;51.210;6.838;2022-12-07T14:09:22;5.72;;;2.45;;
27491;SDS011;14927;51.210;6.838;2022-12-07T14:12:11;10.95;;;2.80;;
27491;SDS011;14927;51.210;6.838;2022-12-07T14:14:56;12.98;;;2.67;;
27491;SDS011;14927;51.210;6.838;2022-12-07T14:17:54;9.82;;;2.33;;
27491;SDS011;14927;51.210;6.838;2022-12-07T14:20:40;10.40;;;2.33;;
27491;SDS011;14927;51.210;6.838;2022-12-07T14:23:25;7.40;;;2.10;;
27491;SDS011;14927;51.210;6.838;2022-12-07T14:26:15;6.50;;;1.85;;
27491;SDS011;14927;51.210;6.838;2022-12-07T14:32:21;7.72;;;2.47;;
27491;SDS011;14927;51.210;6.838;2022-12-07T14:35:13;16.25;;;2.88;;
27491;SDS011;14927;51.210;6.838;2022-12-07T14:38:01;14.07;;;2.70;;
27491;SDS011;14927;51.210;6.838;2022-12-07T14:40:45;7.90;;;2.67;;
27491;SDS011;14927;51.210;6.838;2022-12-07T14:43:30;8.88;;;2.42;;
27491;SDS011;14927;51.210;6.838;2022-12-07T14:46:14;10.32;;;2.85;;
27491;SDS011;14927;51.210;6.838;2022-12-07T14:48:59;7.63;;;2.70;;
27491;SDS011;14927;51.210;6.838;2022-12-07T14:51:44;7.53;;;2.38;;
27491;SDS011;14927;51.210;6.838;2022-12-07T14:54:31;13.82;;;3.47;;
27491;SDS011;14927;51.210;6.838;2022-12-07T14:57:17;10.57;;;3.35;;
27491;SDS011;14927;51.210;6.838;2022-12-07T15:00:02;7.38;;;2.25;;
27491;SDS011;14927;51.210;6.838;2022-12-07T15:02:47;8.77;;;2.72;;
27491;SDS011;14927;51.210;6.838;2022-12-07T15:05:33;10.18;;;3.00;;
27491;SDS011;14927;51.210;6.838;2022-12-07T15:08:18;10.23;;;2.85;;
27491;SDS011;14927;51.210;6.838;2022-12-07T15:11:03;16.35;;;3.13;;
27491;SDS011;14927;51.210;6.838;2022-12-07T15:13:48;11.45;;;3.50;;
27491;SDS011;14927;51.210;6.838;2022-12-07T15:16:51;16.60;;;3.63;;
27491;SDS011;14927;51.210;6.838;2022-12-07T15:19:36;10.02;;;3.90;;
27491;SDS011;14927;51.210;6.838;2022-12-07T15:22:20;18.05;;;4.28;;
27491;SDS011;14927;51.210;6.838;2022-12-07T15:25:05;18.17;;;4.50;;
27491;SDS011;14927;51.210;6.838;2022-12-07T15:27:50;11.68;;;4.32;;
27491;SDS011;14927;51.210;6.838;2022-12-07T15:30:39;15.88;;;5.10;;
27491;SDS011;14927;51.210;6.838;2022-12-07T15:33:28;14.43;;;3.97;;
27491;SDS011;14927;51.210;6.838;2022-12-07T15:36:20;9.45;;;4.53;;
27491;SDS011;14927;51.210;6.838;2022-12-07T15:39:08;12.45;;;4.15;;
27491;SDS011;14927;51.210;6.838;2022-12-07T15:41:53;12.20;;;3.70;;
27491;SDS011;14927;51.210;6.838;2022-12-07T15:44:38;12.20;;;3.88;;
27491;SDS011;14927;51.210;6.838;2022-12-07T15:47:42;13.80;;;3.67;;
27491;SDS011;14927;51.210;6.838;2022-12-07T15:50:31;13.38;;;4.22;;
27491;SDS011;14927;51.210;6.838;2022-12-07T15:53:15;8.30;;;4.15;;
27491;SDS011;14927;51.210;6.838;2022-12-07T15:56:00;14.82;;;5.03;;
27491;SDS011;14927;51.210;6.838;2022-12-07T15:58:45;14.25;;;5.03;;
27491;SDS011;14927;51.210;6.838;2022-12-07T16:01:30;16.02;;;6.22;;
27491;SDS011;14927;51.210;6.838;2022-12-07T16:04:14;18.15;;;8.07;;
27491;SDS011;14927;51.210;6.838;2022-12-07T16:06:59;19.73;;;9.80;;
27491;SDS011;14927;51.210;6.838;2022-12-07T16:09:44;13.98;;;6.35;;
27491;SDS011;14927;51.210;6.838;2022-12-07T16:12:30;11.52;;;5.95;;
27491;SDS011;14927;51.210;6.838;2022-12-07T16:15:14;9.85;;;4.60;;
27491;SDS011;14927;51.210;6.838;2022-12-07T16:17:59;14.40;;;4.97;;
27491;SDS011;14927;51.210;6.838;2022-12-07T16:20:44;12.52;;;4.72;;
27491;SDS011;14927;51.210;6.838;2022-12-07T16:23:33;10.93;;;4.38;;
27491;SDS011;14927;51.210;6.838;2022-12-07T16:26:18;13.55;;;4.57;;
27491;SDS011;14927;51.210;6.838;2022-12-07T16:29:05;10.70;;;4.45;;
27491;SDS011;14927;51.210;6.838;2022-12-07T16:31:50;9.43;;;4.47;;
27491;SDS011;14927;51.210;6.838;2022-12-07T16:34:35;9.82;;;3.58;;
27491;SDS011;14927;51.210;6.838;2022-12-07T16:37:20;16.13;;;5.00;;
27491;SDS011;14927;51.210;6.838;2022-12-07T16:40:05;9.32;;;4.05;;
27491;SDS011;14927;51.210;6.838;2022-12-07T16:42:50;7.25;;;3.60;;
27491;SDS011;14927;51.210;6.838;2022-12-07T16:45:36;8.40;;;3.88;;
27491;SDS011;14927;51.210;6.838;2022-12-07T16:48:20;13.35;;;3.45;;
27491;SDS011;14927;51.210;6.838;2022-12-07T16:51:09;8.55;;;3.58;;
27491;SDS011;14927;51.210;6.838;2022-12-07T16:53:56;9.05;;;4.20;;
27491;SDS011;14927;51.210;6.838;2022-12-07T16:56:40;10.43;;;3.97;;
27491;SDS011;14927;51.210;6.838;2022-12-07T16:59:25;8.82;;;3.97;;
27491;SDS011;14927;51.210;6.838;2022-12-07T17:02:10;12.00;;;4.60;;
27491;SDS011;14927;51.210;6.838;2022-12-07T17:04:55;11.13;;;4.28;;
27491;SDS011;14927;51.210;6.838;2022-12-07T17:07:40;10.00;;;4.47;;
27491;SDS011;14927;51.210;6.838;2022-12-07T17:10:25;11.98;;;4.60;;
27491;SDS011;14927;51.210;6.838;2022-12-07T17:13:09;11.43;;;4.68;;
27491;SDS011;14927;51.210;6.838;2022-12-07T17:16:13;11.52;;;4.68;;
27491;SDS011;14927;51.210;6.838;2022-12-07T17:18:58;9.68;;;4.78;;
27491;SDS011;14927;51.210;6.838;2022-12-07T17:21:43;12.55;;;5.63;;
27491;SDS011;14927;51.210;6.838;2022-12-07T17:24:27;12.95;;;5.90;;
27491;SDS011;14927;51.210;6.838;2022-12-07T17:27:12;11.48;;;5.45;;
27491;SDS011;14927;51.210;6.838;2022-12-07T17:29:57;14.65;;;5.10;;
27491;SDS011;14927;51.210;6.838;2022-12-07T17:32:41;13.65;;;5.60;;
27491;SDS011;14927;51.210;6.838;2022-12-07T17:35:26;12.20;;;6.03;;
27491;SDS011;14927;51.210;6.838;2022-12-07T17:38:11;11.75;;;5.32;;
27491;SDS011;14927;51.210;6.838;2022-12-07T17:40:55;10.10;;;6.10;;
27491;SDS011;14927;51.210;6.838;2022-12-07T17:43:40;11.45;;;5.72;;
27491;SDS011;14927;51.210;6.838;2022-12-07T17:46:25;16.63;;;5.90;;
27491;SDS011;14927;51.210;6.838;2022-12-07T17:49:10;14.10;;;6.82;;
27491;SDS011;14927;51.210;6.838;2022-12-07T17:51:55;16.33;;;6.20;;
27491;SDS011;14927;51.210;6.838;2022-12-07T17:54:59;14.27;;;7.10;;
27491;SDS011;14927;51.210;6.838;2022-12-07T17:57:44;11.95;;;6.63;;
27491;SDS011;14927;51.210;6.838;2022-12-07T18:00:29;16.27;;;7.45;;
27491;SDS011;14927;51.210;6.838;2022-12-07T18:03:13;13.25;;;7.70;;
27491;SDS011;14927;51.210;6.838;2022-12-07T18:05:59;14.15;;;7.45;;
27491;SDS011;14927;51.210;6.838;2022-12-07T18:08:44;13.60;;;7.78;;
27491;SDS011;14927;51.210;6.838;2022-12-07T18:11:29;14.27;;;7.45;;
27491;SDS011;14927;51.210;6.838;2022-12-07T18:14:14;11.48;;;6.97;;
27491;SDS011;14927;51.210;6.838;2022-12-07T18:16:59;13.80;;;7.35;;
27491;SDS011;14927;51.210;6.838;2022-12-07T18:19:43;13.90;;;8.10;;
27491;SDS011;14927;51.210;6.838;2022-12-07T18:22:28;14.93;;;10.18;;
27491;SDS011;14927;51.210;6.838;2022-12-07T18:25:13;14.05;;;9.82;;